Tiempo atmosférico en la estación meteorológica de San Vicente de la Barquera, Cantabria (39 m.)



Fecha
DESCASC
Temp. máxima en grados centígrados (hora)
DESCASC
Temp. mínima en grados centígrados (hora)
DESCASC
Temp. media en grados centígrados
DESCASC
Racha de viento máxima en m/sg (hora)
DESCASC
Velocidad máxima media en intervalos de 10 minutos(hora)
DESCASC
Precipitaciones diarias en mm
DESCASC
Precipitaciones de 00:00 a 06:00 en mm
DESCASC
Precipitaciones de 06:00 a 12:00 en mm
DESCASC
Precipitaciones de 12:00 a 18:00 en mm
DESCASC
Precipitaciones de 18:00 a 24:00 en mm
DESCASC
22-04-2019 17.3 (17:40) 8.7 (08:00) 13 5.83 (18:30) 3.33 (16:00) 0 0 0 0 0
21-04-2019 15.4 (14:30) 8.8 (04:50) 12.1 5.83 (13:30) 4.44 (14:00) 0 0 0 0 0
20-04-2019 14.6 (19:10) 8.9 (07:10) 11.8 5.83 (14:20) 3.89 (13:40) 0 0 0 0 0
19-04-2019 16.5 (17:10) 11.6 (23:59) 14.1 9.17 (10:20) 6.39 (16:00) 3.4 2.1 1.3 0 0
18-04-2019 14.8 (12:40) 11.9 (00:00) 13.3 11.67 (00:20) 7.78 (00:20) 14 0 0 4.3 9.7
17-04-2019 26.4 (16:10) 11.7 (00:00) 19 12.22 (21:20) 7.78 (21:40) 0 0 0 0 0
16-04-2019 15.6 (19:30) 7.1 (00:00) 11.4 12.78 (16:30) 8.61 (17:30) 0 0 0 0 0
15-04-2019 25 (13:00) 11.6 (00:00) 18.3 20 (13:10) 12.22 (13:20) 11.4 0 0 3.7 7.7
14-04-2019 18.7 (12:10) 10.4 (00:00) 14.6 6.67 (14:50) 4.72 (14:40) 0 0 0 0 0
13-04-2019 15.3 (17:20) 5.7 (00:00) 10.5 4.72 (19:20) 3.61 (05:10) 0 0 0 0 0
12-04-2019 14.4 (13:20) 5.4 (00:00) 9.9 9.44 (18:00) 6.39 (18:10) 0 0 0 0 0
11-04-2019 13.4 (15:00) 8.9 (00:00) 11.1 11.67 (15:30) 8.61 (16:10) 1.9 1.8 0 0 0.1
10-04-2019 13.4 (13:10) 8.1 (00:00) 10.8 9.17 (23:30) 5.28 (23:40) 1.9 0.4 1.4 0 0.1
09-04-2019 14.8 (12:40) 7.3 (00:00) 11.1 8.89 (13:20) 5.83 (13:30) 0.2 0 0 0 0.2
08-04-2019 15.6 (15:10) 9.4 (00:00) 12.5 10 (06:50) 6.67 (06:40) 0.1 0 0.1 0 0
07-04-2019 14.1 (16:40) 7.6 (00:00) 10.9 11.11 (01:50) 6.67 (12:20) 0 0 0 0 0
06-04-2019 14.3 (15:30) 4.2 (00:00) 9.3 11.11 (18:00) 7.22 (18:10) 0.2 0 0 0 0.2
05-04-2019 12.4 (16:00) 8.3 (00:00) 10.3 7.5 (06:10) 5 (05:20) 1.5 0 1.3 0.2 0
04-04-2019 13.7 (12:50) 3.3 (00:00) 8.5 16.11 (04:50) 8.61 (04:50) 4 4 0 0 0
03-04-2019 10 (14:40) 4.7 (00:00) 7.3 19.17 (15:50) 11.94 (16:00) 18.8 0.4 5.9 7 5.5
02-04-2019 13.3 (14:10) 6.9 (00:00) 10.1 11.67 (17:40) 8.33 (17:30) 2.7 0 0 0.1 2.6
01-04-2019 14.1 (19:00) 5.2 (00:00) 9.7 5.28 (09:00) 3.61 (06:10) 0 0 0 0 0
31-03-2019 16 (15:50) 6.5 (00:00) 11.3 10.83 (19:00) 6.67 (19:00) 0 0 0 0 0
30-03-2019 14.4 (15:20) 5.1 (00:00) 9.7 4.44 (03:00) 3.61 (07:10) 0 0 0 0 0
29-03-2019 13.5 (15:00) 3.7 (00:00) 8.6 4.72 (04:00) 3.89 (04:10) 0 0 0 0 0
28-03-2019 13.8 (12:40) 3.6 (00:00) 8.7 9.17 (18:50) 5.83 (18:40) 0 0 0 0 0
27-03-2019 12.8 (12:10) 3.2 (00:00) 8 9.72 (13:00) 6.39 (13:10) 0 0 0 0 0
26-03-2019 11.8 (11:50) 7.6 (00:00) 9.7 13.33 (13:30) 9.72 (13:40) 0 0 0 0 0
25-03-2019 13.7 (13:20) 9 (00:00) 11.3 8.33 (15:40) 5.83 (11:50) 0 0 0 0 0

Gráficas

Temp. máximas Temp. mínimas Temp. medias Precipitaciones Rachas de viento máximas Velocidades máximas media en intervalos de 10 minutos

Datos horarios

Fecha y hora oficial Temperatura (ºC) Velocidad del viento (km/h) Dirección del viento Racha (km/h) Dirección de racha Precipitación (mm) Presión (hPa) Tendencia (hPa) Humedad (%)
2019-04-23 23:00:00 8.7 7 Sur 13 Sur 0 994.4 1.4 92
2019-04-23 22:00:00 8.7 5 Sur 11 Sudoeste 0 993.9 2.6 91
2019-04-23 21:00:00 9 10 Oeste 39 Oeste 4.1 993.6 3.6 91
2019-04-23 20:00:00 9 33 Oeste 53 Noroeste 0.1 993 3.1 87
2019-04-23 19:00:00 12.5 10 Norte 19 Norte 0 991.3 1.3 78
2019-04-23 18:00:00 13 7 Nordeste 14 Norte 0 990 -0.3 80
2019-04-23 17:00:00 13.4 8 Nordeste 16 Este 0 989.9 -0.6 78
2019-04-23 16:00:00 13.6 9 Nordeste 14 Este 0 990 -0.3 81
2019-04-23 15:00:00 12.4 10 Norte 17 Noroeste 0 990.3 0.3 86
2019-04-23 14:00:00 12 12 Noroeste 30 Norte 0 990.5 1.3 87
2019-04-23 13:00:00 11.7 12 Norte 34 Norte 0 990.3 1.4 88
2019-04-23 12:00:00 12.2 17 Oeste 28 Noroeste 0 990 1.3 89
2019-04-23 11:00:00 13.4 18 Oeste 28 Noroeste 0 989.2 0.9 91
2019-04-23 10:00:00 13.6 8 Oeste 15 Oeste 0 988.9 0.7 91
2019-04-23 09:00:00 12.6 3 Sudoeste 8 Sudoeste 0 988.7 0.6 91
2019-04-23 08:00:00 12.5 3 Sudoeste 7 Sudoeste 0 988.3 -0.2 91
2019-04-23 07:00:00 12.5 3 Sudoeste 9 Sudoeste 0 988.2 -0.2 90
2019-04-23 06:00:00 12.8 4 Sudoeste 6 Sur 0 988.1 -0.4 89
2019-04-23 05:00:00 13.2 3 Sudoeste 13 Oeste 0 988.5 0 88
2019-04-23 04:00:00 13.3 9 Oeste 24 Oeste 0 988.4 0.3 90
2019-04-23 03:00:00 13.2 10 Oeste 31 Oeste 0 988.5 0.3 92
2019-04-23 02:00:00 13.8 21 Oeste 37 Noroeste 0 988.5 -0.1 93
2019-04-23 01:00:00 13.8 23 Oeste 35 Oeste 0 988.1 -0.3 92
2019-04-23 00:00:00 14.4 0 Calma 14 Oeste 0 988.2 -0.8 89
2019-04-22 23:00:00 14.6 8 Oeste 17 Oeste 0 988.6 -0.7 88
2019-04-22 22:00:00 15 10 Sur 13 Sur 0 988.4 -1.8 90
2019-04-22 21:00:00 15.1 4 Este 8 Este 0 989 -2 89
2019-04-22 20:00:00 16.2 0 Calma 12 Este 0 989.3 -2.7 90
2019-04-22 19:00:00 15.3 9 Este 21 Este 0 990.2 -2.5 89
2019-04-22 18:00:00 16.6 9 Este 15 Este 0 991 -2.7 85
2019-04-22 17:00:00 15.9 5 Nordeste 15 Nordeste 0 992 -2.9 85
2019-04-22 16:00:00 16.1 12 Nordeste 17 Este 0 992.7 -3.1 84
2019-04-22 15:00:00 16.2 9 Nordeste 17 Nordeste 0 993.7 -3.1 83
2019-04-22 14:00:00 15.8 7 Nordeste 15 Este 0 994.9 -3 85
2019-04-22 13:00:00 14.5 8 Nordeste 12 Norte 0 995.8 -2.7 87
2019-04-22 12:00:00 14.3 6 Norte 8 Norte 0 996.8 -2.3 88
2019-04-22 11:00:00 13.7 2 Este 6 Sudoeste 0 997.9 -1.6 88
2019-04-22 10:00:00 12 5 Sudoeste 10 Sudoeste 0 998.5 -1.5 91
2019-04-22 09:00:00 9.5 9 Sudoeste 12 Sudoeste 0 999.1 -1.7 93
2019-04-22 08:00:00 8.8 10 Sudoeste 13 Sudoeste 0 999.5 -2.3 93
2019-04-22 07:00:00 9.2 9 Sudoeste 12 Sudoeste 0 1000 -2.8 93
2019-04-22 06:00:00 9.9 9 Sudoeste 11 Sudoeste 0 1000.8 -3 93
2019-04-22 05:00:00 10.7 8 Sudoeste 10 Sudoeste 0 1001.8 -3.1 92
2019-04-22 04:00:00 11.7 3 Sur 7 Sur 0 1002.8 -2.9 92
2019-04-22 03:00:00 11.8 6 Sur 9 Sudoeste 0 1003.8 -2.9 92
2019-04-22 02:00:00 12.4 4 Sur 8 Sur 0 1004.9 -2.4 91
2019-04-22 01:00:00 12.7 2 Nordeste 5 Este 0 1005.7 -2.2 91
2019-04-22 00:00:00 12.8 0 Calma 3 Nordeste 0 1006.7 -1.2 91
2019-04-21 23:00:00 13.1 2 Sudeste 9 Sur 0 1007.3 -0.4 91
2019-04-21 22:00:00 13.3 3 Sudeste 7 Este 0 1007.9 0 91
2019-04-21 21:00:00 13.3 4 Sudeste 8 Este 0 1007.9 -0.7 91
2019-04-21 20:00:00 13.4 5 Este 15 Este 0 1007.7 -1.5 91
2019-04-21 19:00:00 13.7 4 Norte 6 Norte 0 1007.9 -2.1 91
2019-04-21 18:00:00 13.9 3 Norte 14 Norte 0 1008.6 -1.9 89
2019-04-21 17:00:00 14.5 7 Norte 17 Noroeste 0 1009.2 -1.9 89
2019-04-21 16:00:00 14.7 5 Norte 21 Noroeste 0 1010 -1.8 88
2019-04-21 15:00:00 14.8 11 Noroeste 21 Noroeste 0 1010.5 -1.6 88
2019-04-21 14:00:00 14.3 16 Noroeste 21 Noroeste 0 1011.1 -1.4 88
2019-04-21 13:00:00 14.4 14 Noroeste 21 Noroeste 0 1011.8 -0.5 88
2019-04-21 12:00:00 14.5 11 Noroeste 18 Noroeste 0 1012.1 -0.9 87
2019-04-21 11:00:00 13.9 9 Noroeste 15 Noroeste 0 1012.5 0.4 83
2019-04-21 10:00:00 13.8 4 Sur 15 Sur 0 1012.3 0.4 86
2019-04-21 09:00:00 10.8 8 Sur 12 Sur 0 1013 0.5 88
2019-04-21 08:00:00 11.2 4 Oeste 16 Oeste 0 1012.1 -1.3 85
2019-04-21 07:00:00 11.2 5 Oeste 15 Sudoeste 0 1011.9 -1.9 79
2019-04-21 06:00:00 9.9 6 Sudoeste 14 Sudoeste 0 1012.5 -1.7 85
2019-04-21 05:00:00 10 7 Sudoeste 14 Sur 0 1013.4 -1.8 88
2019-04-21 04:00:00 9 10 Sudoeste 15 Sudoeste 0 1013.8 -1.8 89
2019-04-21 03:00:00 9.4 13 Sudoeste 17 Sudoeste 0 1014.2 -1.8 88
2019-04-21 02:00:00 9.8 12 Sudoeste 16 Sudoeste 0 1015.2 -1.2 88
2019-04-21 01:00:00 10.4 12 Sudoeste 14 Sudoeste 0 1015.6 -0.8 91
2019-04-21 00:00:00 11.2 10 Sudoeste 12 Sudoeste 0 1016 -0.1 90
2019-04-20 23:00:00 12 9 Sur 10 Sur 0 1016.4 0.4 92
2019-04-20 22:00:00 13.1 5 Sur 6 Sur 0 1016.4 0.4 92
2019-04-20 21:00:00 13 2 Sur 4 Sur 0 1016.1 -0.2 92
2019-04-20 20:00:00 13.4 2 Norte 6 Noroeste 0 1016 -0.7 92
2019-04-20 19:00:00 13.8 0 Calma 7 Noroeste 0 1016 -1.1 92
2019-04-20 18:00:00 14 5 Noroeste 10 Noroeste 0 1016.3 -1.2 92
2019-04-20 17:00:00 13 4 Norte 11 Nordeste 0 1016.7 -1.3 92
2019-04-20 16:00:00 13.5 4 Noroeste 13 Nordeste 0 1017.1 -1.4 92
2019-04-20 15:00:00 13 5 Norte 21 Noroeste 0 1017.5 -1.6 92
2019-04-20 14:00:00 13.5 14 Noroeste 21 Noroeste 0 1018 -1.5 92
2019-04-20 13:00:00 13.1 10 Noroeste 15 Noroeste 0 1018.5 -0.9 92
2019-04-20 12:00:00 12.8 9 Noroeste 18 Noroeste 0 1019.1 -0.1 92
2019-04-20 11:00:00 13.4 12 Noroeste 16 Noroeste 0 1019.5 0.4 91
2019-04-20 10:00:00 12.9 8 Noroeste 13 Noroeste 0 1019.4 0.9 91
2019-04-20 09:00:00 11.2 0 Calma 12 Sur 0 1019.2 0.5 92
2019-04-20 08:00:00 9.2 3 Sudoeste 16 Sudoeste 0 1019.1 0.1 92
2019-04-20 07:00:00 9.1 11 Sudoeste 16 Sudoeste 0 1018.5 -0.8 92
2019-04-20 06:00:00 9.3 9 Sudoeste 10 Sudoeste 0 1018.7 -0.6 92
2019-04-20 05:00:00 10 8 Sudoeste 12 Sur 0 1019 -0.4 92
2019-04-20 04:00:00 10.7 4 Noroeste 13 Sudoeste 0 1019.3 -0.4 92
2019-04-20 03:00:00 10 11 Sudoeste 14 Sudoeste 0 1019.3 -0.2 92
2019-04-20 02:00:00 10.8 10 Sudoeste 13 Sudoeste 0 1019.4 -0.2 92
2019-04-20 01:00:00 11.2 6 Sur 10 Sudoeste 0 1019.7 0.7 91
2019-04-20 00:00:00 11.6 7 Sudoeste 11 Sudoeste 0 1019.5 1.8 91
2019-04-19 23:00:00 12.9 0 Calma 7 Sur 0 1019.6 2.5 91
2019-04-19 22:00:00 13.4 2 Norte 11 Norte 0 1019 2.2 90
2019-04-19 21:00:00 13.9 4 Noroeste 7 Sudeste 0 1017.7 1.1 85
2019-04-19 20:00:00 14.9 5 Este 15 Este 0 1017.1 1 84
2019-04-19 19:00:00 14.9 7 Este 20 Nordeste 0 1016.8 1.2 88
2019-04-19 18:00:00 14.8 10 Este 26 Este 0 1016.6 1.2 87
2019-04-19 17:00:00 16.1 10 Este 33 Este 0 1016.1 1.3 85
2019-04-19 16:00:00 14.5 23 Este 30 Este 0 1015.6 0.7 89
2019-04-19 15:00:00 15.2 15 Este 29 Este 0 1015.4 0.6 88
2019-04-19 14:00:00 15.5 12 Este 31 Este 0 1014.8 0.1 91
2019-04-19 13:00:00 14.2 16 Este 29 Este 0 1014.9 0.7 92
2019-04-19 12:00:00 14.5 10 Este 26 Este 0 1014.8 1.5 93
2019-04-19 11:00:00 13.1 9 Este 33 Este 0.5 1014.7 2.1 93
2019-04-19 10:00:00 12.8 14 Este 26 Este 0.4 1014.2 2.2 93
2019-04-19 09:00:00 12.6 9 Este 18 Nordeste 0.3 1013.3 1.3 93
2019-04-19 08:00:00 12 6 Sudeste 12 Sudeste 0 1012.6 0.8 93
2019-04-19 07:00:00 12.2 6 Sur 10 Sur 0.1 1012 -0.3 93
2019-04-19 06:00:00 12.1 3 Sudeste 7 Sudoeste 0 1012 -0.6 93
2019-04-19 05:00:00 12.1 3 Sudoeste 9 Sudoeste 0.1 1011.8 -0.9 93
2019-04-19 04:00:00 12.2 0 Calma 4 Sur 1.1 1012.3 0 93
2019-04-19 03:00:00 12.1 0 Calma 5 Noroeste 0.5 1012.6 0.2 93
2019-04-19 02:00:00 12 4 Noroeste 7 Noroeste 0 1012.7 0 93
2019-04-19 01:00:00 12 4 Sudoeste 9 Sudoeste 0.4 1012.3 0.4 93
2019-04-19 00:00:00 11.9 4 Sudoeste 8 Sur 1.6 1012.4 0.4 93
2019-04-18 23:00:00 12.1 5 Sur 7 Sur 0.6 1012.7 1.2 93
2019-04-18 22:00:00 12 2 Sudoeste 9 Sudeste 2.1 1011.9 1.2 93
2019-04-18 21:00:00 12.3 4 Sudeste 11 Este 2.1 1012 1.8 93
2019-04-18 20:00:00 12.3 7 Este 23 Nordeste 2 1011.5 1.6 93
2019-04-18 19:00:00 13 6 Nordeste 15 Nordeste 1.3 1010.7 0.4 93
2019-04-18 18:00:00 13.5 4 Nordeste 12 Este 0.1 1010.2 -0.2 93
2019-04-18 17:00:00 13.5 6 Nordeste 19 Este 0 1009.9 -0.7 93
2019-04-18 16:00:00 13.4 5 Nordeste 20 Este 1.4 1010.3 0.2 93
2019-04-18 15:00:00 13 12 Nordeste 20 Nordeste 2.1 1010.4 0.5 93
2019-04-18 14:00:00 13.3 9 Este 14 Este 0.4 1010.6 0.9 91
2019-04-18 13:00:00 14.4 4 Este 10 Este 0.3 1010.1 1.2 89
2019-04-18 12:00:00 14.3 2 Sudeste 4 Sudeste 0 1009.9 1.7 88
2019-04-18 11:00:00 13.6 4 Sur 9 Sur 0 1009.7 1.5 89
2019-04-18 10:00:00 13.3 6 Sur 10 Sur 0 1008.9 1.8 89
2019-04-18 09:00:00 13.2 0 Calma 12 Sur 0 1008.2 1.7 89
2019-04-18 08:00:00 12.9 7 Sur 9 Sur 0 1008.2 2.6 90
2019-04-18 07:00:00 12.9 5 Sur 9 Sudoeste 0 1007.1 2.2 90
2019-04-18 06:00:00 13.4 0 Calma 12 Oeste 0 1006.5 1.7 89
2019-04-18 05:00:00 13.6 0 Calma 9 Sudoeste 0 1005.6 1.2 82
2019-04-18 04:00:00 13.6 7 Oeste 14 Oeste 0 1004.9 1.7 82
2019-04-18 03:00:00 13.8 6 Sudoeste 25 Oeste 0 1004.8 2.2 82
2019-04-18 02:00:00 14 17 Oeste 29 Oeste 0 1004.4 1.4 85
2019-04-18 01:00:00 13.9 21 Oeste 42 Oeste 0 1003.2 1.6 88
2019-04-18 00:00:00 14.3 21 Oeste 35 Oeste 0 1002.6 2.2 88
2019-04-17 23:00:00 15 5 Noroeste 30 Oeste 0 1003 3.3 84
2019-04-17 22:00:00 15.8 17 Oeste 44 Oeste 0 1001.6 1.7 75
2019-04-17 21:00:00 21.3 6 Sudeste 19 Este 0 1000.4 0.8 51
2019-04-17 20:00:00 21.1 12 Este 23 Este 0 999.7 -0.1 52
2019-04-17 19:00:00 22.2 5 Sur 9 Sudeste 0 999.9 -0.3 47
2019-04-17 18:00:00 19.8 3 Noroeste 18 Oeste 0 999.6 -1 52
2019-04-17 17:00:00 22.9 8 Noroeste 26 Este 0 999.8 -1.4 38
2019-04-17 16:00:00 26.3 12 Sudeste 35 Sudeste 0 1000.2 -1 32
2019-04-17 15:00:00 25 20 Sudeste 44 Sur 0 1000.6 -1.4 33
2019-04-17 14:00:00 22.6 25 Sur 42 Sur 0 1001.2 -1 38
2019-04-17 13:00:00 21 4 Sudoeste 31 Sur 0 1001.2 -0.8 43
2019-04-17 12:00:00 19 6 Sur 22 Sur 0 1002 0.2 49
2019-04-17 11:00:00 18.3 4 Sur 13 Sudoeste 0 1002.2 0.7 50
2019-04-17 10:00:00 17.2 6 Sur 14 Sur 0 1002 0.2 56
2019-04-17 09:00:00 17.5 3 Sudoeste 17 Sur 0 1001.8 -0.2 52
2019-04-17 08:00:00 14.8 14 Sur 22 Sur 0 1001.5 -0.9 69
2019-04-17 07:00:00 14.4 3 Sur 19 Sur 0 1001.8 -1.2 72
2019-04-17 06:00:00 13.6 0 Calma 13 Oeste 0 1002 -1.9 84
2019-04-17 05:00:00 14.7 6 Sudeste 17 Oeste 0 1002.4 -3.1 73
2019-04-17 04:00:00 13.7 5 Oeste 26 Sur 0 1003 -3.5 83
2019-04-17 03:00:00 11.8 7 Sudoeste 13 Sudoeste 0 1003.9 -3.6 92
2019-04-17 02:00:00 12.2 3 Sur 10 Sudeste 0 1005.5 -2.7 92
2019-04-17 01:00:00 12.1 5 Sudeste 10 Sudeste 0 1006.5 -2.2 92
2019-04-17 00:00:00 12.1 5 Sur 8 Sudoeste 0 1007.5 -1.1 92
2019-04-16 23:00:00 12.7 4 Sudoeste 6 Sudoeste 0 1008.2 -0.4 91
2019-04-16 22:00:00 13 5 Sudoeste 11 Oeste 0 1008.7 -0.1 90
2019-04-16 21:00:00 13.5 8 Oeste 13 Oeste 0 1008.6 -0.6 88
2019-04-16 20:00:00 15.2 0 Calma 17 Este 0 1008.6 -1.4 87
2019-04-16 19:00:00 14.8 10 Este 25 Este 0 1008.8 -2 87
2019-04-16 18:00:00 14 21 Este 42 Este 0 1009.2 -2.1 88
2019-04-16 17:00:00 14 28 Este 46 Este 0 1010 -2.3 86
2019-04-16 16:00:00 14.3 30 Este 42 Este 0 1010.8 -2 82
2019-04-16 15:00:00 14.5 26 Este 38 Este 0 1011.3 -2.4 79
2019-04-16 14:00:00 15 22 Nordeste 33 Nordeste 0 1012.3 -1.8 75
2019-04-16 13:00:00 14.3 22 Este 30 Este 0 1012.8 -1.7 82
2019-04-16 12:00:00 14 17 Este 26 Este 0 1013.7 -0.7 82
2019-04-16 11:00:00 13.2 4 Este 11 Este 0 1014.1 -0.2 85
2019-04-16 10:00:00 12.2 2 Sur 15 Sudoeste 0 1014.5 0.6 92
2019-04-16 09:00:00 8.8 12 Sudoeste 17 Sudoeste 0 1014.4 0.6 93
2019-04-16 08:00:00 7.4 13 Sudoeste 17 Sudoeste 0 1014.3 0.4 93
2019-04-16 07:00:00 7.4 13 Sudoeste 17 Sudoeste 0 1013.9 -0.1 93
2019-04-16 06:00:00 7.9 13 Sudoeste 17 Sudoeste 0 1013.8 -0.6 93
2019-04-16 05:00:00 8.5 12 Sudoeste 14 Sudoeste 0 1013.9 -0.5 93
2019-04-16 04:00:00 9.2 10 Sudoeste 13 Sudoeste 0 1014 0.1 92
2019-04-16 03:00:00 9.8 7 Sur 10 Sudoeste 0 1014.4 0.7 91
2019-04-16 02:00:00 11 7 Sur 20 Oeste 0 1014.4 1.4 89
2019-04-16 01:00:00 11.7 5 Oeste 22 Oeste 0 1013.9 1.7 91
2019-04-16 00:00:00 11.9 8 Oeste 23 Oeste 0 1013.7 2.9 91
2019-04-15 23:00:00 11.7 11 Oeste 29 Oeste 0.3 1013 3.5 93
2019-04-15 22:00:00 11.7 4 Oeste 21 Oeste 1.5 1012.2 3.6 93
2019-04-15 21:00:00 11.7 18 Oeste 37 Oeste 3.1 1010.8 3.6 93
2019-04-15 20:00:00 12.6 6 Oeste 24 Noroeste 2.1 1009.5 2.8 93
2019-04-15 19:00:00 13.3 3 Noroeste 20 Oeste 0.7 1008.6 3.1 92
2019-04-15 18:00:00 13.5 12 Noroeste 22 Noroeste 0.1 1007.2 3.2 92
2019-04-15 17:00:00 13.6 14 Oeste 36 Noroeste 0.5 1006.7 3.6 92
2019-04-15 16:00:00 13.4 27 Oeste 46 Oeste 0.6 1005.5 4 93
2019-04-15 15:00:00 14.5 18 Oeste 43 Oeste 2.3 1004 2.8 93
2019-04-15 14:00:00 15.2 30 Oeste 72 Oeste 0.2 1003.1 1.7 91
2019-04-15 13:00:00 25 5 Sudoeste 39 Oeste 0 1001.5 -0.4 48
2019-04-15 12:00:00 19.5 11 Sur 16 Sudeste 0 1001.2 -1.1 66
2019-04-15 11:00:00 16.6 5 Oeste 17 Sur 0 1001.4 -1.7 79
2019-04-15 10:00:00 15.4 13 Sur 18 Sudoeste 0 1001.9 -2 84
2019-04-15 09:00:00 13.5 9 Sur 17 Sur 0 1002.3 -1.4 92
2019-04-15 08:00:00 12.5 8 Sudoeste 12 Sur 0 1003.1 -2 93
2019-04-15 07:00:00 12.9 6 Oeste 17 Sudoeste 0 1003.9 -1.9 93
2019-04-15 06:00:00 12 13 Sur 17 Sur 0 1003.7 -2.9 93
2019-04-15 05:00:00 11.9 8 Sur 13 Sur 0 1005.1 -2.4 93
2019-04-15 04:00:00 12.6 4 Oeste 12 Sudoeste 0 1005.8 -2.7 93
2019-04-15 03:00:00 12.3 2 Sudoeste 14 Sudoeste 0 1006.6 -2.6 93
2019-04-15 02:00:00 12.8 6 Sur 9 Sudoeste 0 1007.5 -2.6 92
2019-04-15 01:00:00 13.4 3 Sur 10 Sudeste 0 1008.5 -1.7 91
2019-04-15 00:00:00 14 8 Sudeste 15 Este 0 1009.2 -0.7 91
2019-04-14 23:00:00 13.7 8 Este 19 Este 0 1010.1 0.4 92
2019-04-14 22:00:00 13.9 5 Este 17 Este 0 1010.2 0.4 91
2019-04-14 21:00:00 14.3 9 Este 19 Este 0 1009.9 -0.3 91
2019-04-14 20:00:00 14.9 9 Este 21 Este 0 1009.7 -1.3 88
2019-04-14 19:00:00 15 14 Este 21 Nordeste 0 1009.8 -2.1 88
2019-04-14 18:00:00 17 10 Nordeste 16 Este 0 1010.2 -2.2 77
2019-04-14 17:00:00 17.8 5 Este 15 Nordeste 0 1011 -1.2 76
2019-04-14 16:00:00 16.7 5 Nordeste 21 Este 0 1011.9 -0.6 78
2019-04-14 15:00:00 15 16 Este 24 Este 0 1012.4 0.7 88
2019-04-14 14:00:00 15.6 13 Este 19 Este 0 1012.2 0.6 84
2019-04-14 13:00:00 15.5 8 Nordeste 15 Nordeste 0 1012.5 1 84
2019-04-14 12:00:00 18.3 2 Sur 10 Sudoeste 0 1011.7 0.1 65
2019-04-14 11:00:00 14.8 9 Sudoeste 12 Sudoeste 0 1011.6 0.5 81
2019-04-14 10:00:00 12.5 9 Sudoeste 14 Sudoeste 0 1011.5 0.1 88
2019-04-14 09:00:00 11.5 9 Sudoeste 14 Sur 0 1011.6 0.1 91
2019-04-14 08:00:00 10.5 12 Sur 15 Sur 0 1011.1 -1 91
2019-04-14 07:00:00 11.7 5 Sudoeste 10 Sudoeste 0 1011.4 -1 91
2019-04-14 06:00:00 11.8 6 Sur 10 Sur 0 1011.5 -0.8 92
2019-04-14 05:00:00 12.1 6 Sur 10 Sur 0 1012.1 -0.3 92
2019-04-14 04:00:00 12.7 4 Noroeste 13 Noroeste 0 1012.4 0 92
2019-04-14 03:00:00 12.7 10 Oeste 15 Noroeste 0 1012.3 -0.4 92
2019-04-14 02:00:00 12.7 5 Oeste 8 Oeste 0 1012.4 -0.6 89
2019-04-14 01:00:00 12.9 0 Calma 4 Norte 0 1012.4 -0.6 91
2019-04-14 00:00:00 13.1 0 Calma 5 Sur 0 1012.7 0.2 90
2019-04-13 23:00:00 13.3 0 Calma 6 Sur 0 1013 0.3 89
2019-04-13 22:00:00 13.1 3 Sudeste 10 Este 0 1013 0.3 89
2019-04-13 21:00:00 13.6 4 Nordeste 10 Este 0 1012.5 -0.1 88
2019-04-13 20:00:00 13.9 5 Este 17 Nordeste 0 1012.7 0 85
2019-04-13 19:00:00 15 6 Nordeste 12 Nordeste 0 1012.7 0 81
2019-04-13 18:00:00 15 5 Nordeste 11 Norte 0 1012.6 -0.5 80
2019-04-13 17:00:00 14.8 8 Norte 10 Norte 0 1012.7 -1 72
2019-04-13 16:00:00 14.6 7 Nordeste 11 Nordeste 0 1012.7 -1.3 69
2019-04-13 15:00:00 14.3 6 Nordeste 13 Nordeste 0 1013.1 -1.1 72
2019-04-13 14:00:00 14.5 7 Nordeste 14 Este 0 1013.7 -0.5 79
2019-04-13 13:00:00 13.5 6 Nordeste 10 Nordeste 0 1014 -0.4 80
2019-04-13 12:00:00 12.6 7 Norte 9 Norte 0 1014.2 0 81
2019-04-13 11:00:00 11.9 4 Norte 6 Norte 0 1014.2 0 81
2019-04-13 10:00:00 11.4 2 Sudoeste 12 Sudoeste 0 1014.4 0.4 88
2019-04-13 09:00:00 7.5 9 Sudoeste 13 Sudoeste 0 1014.2 0.1 93
2019-04-13 08:00:00 6.2 12 Sudoeste 14 Sudoeste 0 1014.2 0.2 94
2019-04-13 07:00:00 5.9 12 Sudoeste 14 Sudoeste 0 1014 -0.4 94
2019-04-13 06:00:00 6.2 12 Sudoeste 14 Sudoeste 0 1014.1 -0.8 94
2019-04-13 05:00:00 6.3 12 Sur 15 Sudoeste 0 1014 -1.3 94
2019-04-13 04:00:00 6.6 12 Sudoeste 13 Sudoeste 0 1014.4 -1.1 94
2019-04-13 03:00:00 7 10 Sur 12 Sudoeste 0 1014.9 -0.6 94
2019-04-13 02:00:00 7.2 10 Sudoeste 13 Sudoeste 0 1015.3 -0.3 93
2019-04-13 01:00:00 8.1 10 Sudoeste 12 Sudoeste 0 1015.5 0.2 92
2019-04-13 00:00:00 8.8 6 Sudoeste 9 Sudoeste 0 1015.5 0.5 91
2019-04-12 23:00:00 10.1 5 Sur 13 Este 0 1015.6 0.7 87
2019-04-12 22:00:00 11 8 Este 24 Este 0 1015.3 0.1 84
2019-04-12 21:00:00 11.9 8 Este 29 Este 0 1015 -0.5 81
2019-04-12 20:00:00 12.5 19 Este 32 Este 0 1014.9 -0.7 79
2019-04-12 19:00:00 12.7 18 Este 32 Este 0 1015.2 -1.3 78
2019-04-12 18:00:00 12.9 22 Este 34 Este 0 1015.5 -1.6 78
2019-04-12 17:00:00 13 19 Nordeste 28 Este 0 1015.6 -1.9 77
2019-04-12 16:00:00 13.5 17 Nordeste 25 Este 0 1016.5 -0.9 77
2019-04-12 15:00:00 13.8 15 Nordeste 23 Nordeste 0 1017.1 -0.6 76
2019-04-12 14:00:00 13.5 10 Nordeste 20 Nordeste 0 1017.5 0.2 73
2019-04-12 13:00:00 13.8 8 Nordeste 15 Nordeste 0 1017.4 0 72
2019-04-12 12:00:00 12.2 7 Nordeste 13 Norte 0 1017.7 0.3 81
2019-04-12 11:00:00 11.3 4 Nordeste 7 Este 0 1017.3 -0.1 83
2019-04-12 10:00:00 10.1 6 Sudoeste 13 Sudoeste 0 1017.4 0 91
2019-04-12 09:00:00 7 11 Sudoeste 16 Sudoeste 0 1017.4 0 94
2019-04-12 08:00:00 5.5 12 Sudoeste 16 Sudoeste 0 1017.4 -0.1 94
2019-04-12 07:00:00 5.9 12 Sudoeste 15 Sur 0 1017.4 -0.2 94
2019-04-12 06:00:00 6.5 10 Sudoeste 16 Sudoeste 0 1017.4 -0.7 94
2019-04-12 05:00:00 7.4 10 Sudoeste 13 Sudoeste 0 1017.5 -1 94
2019-04-12 04:00:00 9 7 Sudoeste 13 Sudoeste 0 1017.6 -0.9 94
2019-04-12 03:00:00 9.3 5 Sur 9 Sur 0 1018.1 -0.7 94
2019-04-12 02:00:00 9.8 7 Sur 9 Sur 0 1018.5 -0.2 94
2019-04-12 01:00:00 10 7 Sudoeste 9 Sudoeste 0 1018.5 -0.1 93
2019-04-12 00:00:00 10.4 5 Sudoeste 8 Sudoeste 0 1018.8 0.6 92
2019-04-11 23:00:00 10.5 5 Sudoeste 9 Sudoeste 0 1018.7 0.8 92
2019-04-11 22:00:00 10.7 6 Sudoeste 12 Oeste 0 1018.6 0.8 91
2019-04-11 21:00:00 11.1 9 Oeste 18 Oeste 0 1018.2 0.7 91
2019-04-11 20:00:00 11.4 12 Noroeste 33 Noroeste 0.1 1017.9 0.6 90
2019-04-11 19:00:00 11.6 20 Noroeste 35 Noroeste 0 1017.8 0.4 91
2019-04-11 18:00:00 11.6 24 Oeste 39 Oeste 0 1017.5 0.1 88
2019-04-11 17:00:00 12.1 23 Noroeste 42 Noroeste 0 1017.3 -0.2 84
2019-04-11 16:00:00 12.4 26 Noroeste 42 Noroeste 0 1017.4 0.1 83
2019-04-11 15:00:00 13.4 27 Noroeste 37 Noroeste 0 1017.4 0.1 83
2019-04-11 14:00:00 12.2 25 Noroeste 41 Noroeste 0 1017.5 0.5 81
2019-04-11 13:00:00 12.6 24 Noroeste 39 Noroeste 0 1017.3 0.4 81
2019-04-11 12:00:00 11.5 24 Noroeste 38 Noroeste 0 1017.3 0.6 82
2019-04-11 11:00:00 11.6 23 Oeste 36 Noroeste 0 1017 0.6 81
2019-04-11 10:00:00 11.1 14 Oeste 26 Oeste 0 1016.9 0.7 82
2019-04-11 09:00:00 10.7 14 Oeste 28 Oeste 0 1016.7 0.4 84
2019-04-11 08:00:00 10.6 18 Oeste 29 Oeste 0 1016.4 -0.1 87
2019-04-11 07:00:00 9.9 9 Oeste 21 Oeste 0 1016.2 -0.1 87
2019-04-11 06:00:00 9.4 8 Oeste 17 Oeste 0 1016.3 0.3 91
2019-04-11 05:00:00 9.2 6 Sudoeste 15 Sudoeste 0.1 1016.5 0.2 92
2019-04-11 04:00:00 10 7 Oeste 21 Oeste 1.6 1016.3 -0.2 90
2019-04-11 03:00:00 10 4 Sudoeste 21 Oeste 0.1 1016 -0.4 87
2019-04-11 02:00:00 10.6 9 Oeste 20 Oeste 0 1016.3 0.1 88
2019-04-11 01:00:00 10.5 11 Oeste 24 Oeste 0 1016.5 0.8 84
2019-04-11 00:00:00 10.4 18 Oeste 33 Oeste 0 1016.4 1.4 89
2019-04-10 23:00:00 10.9 13 Oeste 28 Oeste 0 1016.2 1.6 88
2019-04-10 22:00:00 10.9 9 Oeste 26 Oeste 0.1 1015.7 1.5 89
2019-04-10 21:00:00 11.3 15 Oeste 24 Oeste 0 1015 1.3 84
2019-04-10 20:00:00 11.8 17 Noroeste 25 Noroeste 0 1014.6 1.5 81
2019-04-10 19:00:00 12.8 15 Noroeste 21 Noroeste 0 1014.2 1.6 77
2019-04-10 18:00:00 12.7 10 Noroeste 21 Noroeste 0 1013.7 1.3 75
2019-04-10 17:00:00 12.3 8 Norte 21 Oeste 0 1013.1 1.2 76
2019-04-10 16:00:00 12.9 12 Norte 19 Norte 0 1012.6 1.1 72
2019-04-10 15:00:00 12.8 5 Norte 10 Este 0 1012.4 1.4 75
2019-04-10 14:00:00 12.9 5 Nordeste 10 Nordeste 0 1011.9 1.3 77
2019-04-10 13:00:00 12.8 4 Norte 9 Sudoeste 0 1011.5 1.3 78
2019-04-10 12:00:00 12.5 4 Sur 12 Sudoeste 0 1011 1.5 84
2019-04-10 11:00:00 10.5 6 Sur 13 Sur 1.2 1010.6 2 91
2019-04-10 10:00:00 10.1 3 Sudoeste 16 Sur 0.2 1010.2 2.1 87
2019-04-10 09:00:00 9.4 7 Sudoeste 14 Sudoeste 0 1009.5 1.7 86
2019-04-10 08:00:00 9.2 7 Sudoeste 15 Sudoeste 0 1008.6 1.1 84
2019-04-10 07:00:00 8.2 8 Sudoeste 14 Sur 0 1008.1 0.1 91
2019-04-10 06:00:00 8.1 10 Sudoeste 17 Sudoeste 0 1007.8 -0.3 91
2019-04-10 05:00:00 8.3 10 Sudoeste 14 Sudoeste 0 1007.5 -0.6 93
2019-04-10 04:00:00 9 9 Sudoeste 14 Sur 0 1008 -0.3 91
2019-04-10 03:00:00 9.4 10 Sudoeste 16 Sur 0 1008.1 0.8 90
2019-04-10 02:00:00 9.9 6 Sudoeste 15 Sudoeste 0.2 1008.1 1.6 87
2019-04-10 01:00:00 10.5 5 Sudoeste 27 Oeste 0.2 1008.3 1.3 90
2019-04-10 00:00:00 10.6 5 Sudoeste 24 Sur 0.1 1007.3 1 79
2019-04-09 23:00:00 10.9 10 Sudeste 21 Este 0.1 1006.5 0.4 81
2019-04-09 22:00:00 11.4 0 Calma 9 Este 0 1007 1.1 78
2019-04-09 21:00:00 12 5 Este 15 Sudeste 0 1006.3 0.6 72
2019-04-09 20:00:00 12.5 9 Este 22 Este 0 1006.1 0.2 78
2019-04-09 19:00:00 13.1 11 Este 21 Este 0 1005.9 -0.1 74
2019-04-09 18:00:00 13.7 8 Este 15 Este 0 1005.7 -0.1 77
2019-04-09 17:00:00 12.4 6 Sur 14 Sudeste 0 1005.9 0.4 85
2019-04-09 16:00:00 12.3 5 Sur 21 Norte 0 1006 0.8 86
2019-04-09 15:00:00 12.5 11 Norte 29 Norte 0 1005.8 0.7 81
2019-04-09 14:00:00 13.6 18 Noroeste 32 Noroeste 0 1005.5 0.7 84
2019-04-09 13:00:00 13.1 19 Noroeste 29 Noroeste 0 1005.2 0.7 83
2019-04-09 12:00:00 13.3 15 Noroeste 25 Noroeste 0 1005.1 0.6 84
2019-04-09 11:00:00 13.7 12 Noroeste 18 Noroeste 0 1004.8 0.9 78
2019-04-09 10:00:00 12.6 2 Sudoeste 15 Oeste 0 1004.5 0.7 78
2019-04-09 09:00:00 11.3 9 Oeste 16 Oeste 0 1004.5 0.7 86
2019-04-09 08:00:00 9.9 3 Oeste 10 Oeste 0 1003.9 0 78
2019-04-09 07:00:00 9 3 Sur 10 Sur 0 1003.8 -0.6 83
2019-04-09 06:00:00 8.1 6 Sur 14 Sur 0 1003.8 -1.1 91
2019-04-09 05:00:00 8.1 8 Sur 16 Sudoeste 0 1003.9 -1.4 91
2019-04-09 04:00:00 7.8 12 Sur 18 Sur 0 1004.4 -1.5 93
2019-04-09 03:00:00 7.5 11 Sudoeste 16 Sur 0 1004.9 -1.3 92
2019-04-09 02:00:00 8.3 10 Sudoeste 14 Sudoeste 0 1005.3 -1.4 91
2019-04-09 01:00:00 9.6 9 Sudoeste 11 Sur 0 1005.9 -0.5 84
2019-04-09 00:00:00 10.8 8 Sur 16 Norte 0 1006.2 0.2 84
2019-04-08 23:00:00 12.5 8 Noroeste 23 Oeste 0 1006.7 0.6 78
2019-04-08 22:00:00 11.8 6 Este 12 Este 0 1006.4 0.1 75
2019-04-08 21:00:00 12.5 8 Este 23 Este 0 1006 -0.6 67
2019-04-08 20:00:00 13.2 9 Este 28 Este 0 1006.1 -0.7 67
2019-04-08 19:00:00 13.7 10 Este 27 Este 0 1006.3 -0.8 68
2019-04-08 18:00:00 13.5 17 Este 25 Este 0 1006.6 -0.7 74
2019-04-08 17:00:00 14.3 16 Nordeste 22 Nordeste 0 1006.8 -0.8 72
2019-04-08 16:00:00 14.5 10 Nordeste 18 Este 0 1007.1 -0.4 67
2019-04-08 15:00:00 15.3 9 Nordeste 13 Este 0 1007.3 0 65
2019-04-08 14:00:00 14.4 5 Este 8 Este 0 1007.6 0.5 68
2019-04-08 13:00:00 13.9 2 Norte 10 Noroeste 0 1007.5 0.6 72
2019-04-08 12:00:00 13.7 4 Noroeste 15 Noroeste 0 1007.3 0.8 81
2019-04-08 11:00:00 12.7 7 Oeste 16 Oeste 0.1 1007.1 1.6 83
2019-04-08 10:00:00 12.1 3 Oeste 12 Oeste 0 1006.9 2.1 86
2019-04-08 09:00:00 11.6 4 Sudoeste 19 Oeste 0 1006.5 3.2 88
2019-04-08 08:00:00 11.5 12 Oeste 33 Oeste 0 1005.5 2.7 91
2019-04-08 07:00:00 11.4 17 Oeste 36 Oeste 0 1004.8 2.6 91
2019-04-08 06:00:00 10.4 5 Sudoeste 11 Noroeste 0 1003.3 0.9 90
2019-04-08 05:00:00 11.1 4 Noroeste 10 Sudoeste 0 1002.8 0.6 84
2019-04-08 04:00:00 10.1 9 Sur 15 Oeste 0 1002.2 -0.4 89
2019-04-08 03:00:00 10.8 2 Oeste 12 Sur 0 1002.4 -0.1 81
2019-04-08 02:00:00 10 2 Sur 17 Sudoeste 0 1002.2 -1.1 88
2019-04-08 01:00:00 9.8 10 Sur 14 Sur 0 1002.6 -1.9 90
2019-04-08 00:00:00 9.9 5 Sudeste 14 Este 0 1002.5 -1.9 89
2019-04-07 23:00:00 10.8 6 Sudeste 11 Este 0 1003.3 -1.1 88
2019-04-07 22:00:00 11.4 3 Sudeste 19 Nordeste 0 1004.5 0.3 85
2019-04-07 21:00:00 11.8 14 Este 20 Este 0 1004.4 0 81
2019-04-07 20:00:00 11.9 9 Este 25 Este 0 1004.4 -0.2 78
2019-04-07 19:00:00 12.3 11 Este 24 Este 0 1004.2 -0.7 72
2019-04-07 18:00:00 12.5 15 Este 22 Este 0 1004.4 -0.7 68
2019-04-07 17:00:00 13.6 9 Nordeste 16 Nordeste 0 1004.6 -0.5 62
2019-04-07 16:00:00 13.5 11 Nordeste 20 Norte 0 1004.9 -0.2 62
2019-04-07 15:00:00 13.1 14 Norte 23 Norte 0 1005.1 0.3 58
2019-04-07 14:00:00 12.8 9 Norte 27 Noroeste 0 1005.1 0.6 56
2019-04-07 13:00:00 13.3 19 Noroeste 34 Noroeste 0 1005.1 1.1 54
2019-04-07 12:00:00 13 20 Noroeste 33 Oeste 0 1004.8 1.3 50
2019-04-07 11:00:00 12.2 18 Oeste 35 Oeste 0 1004.5 1.9 53
2019-04-07 10:00:00 11.3 13 Oeste 27 Oeste 0 1004 2.2 58
2019-04-07 09:00:00 10.1 9 Oeste 31 Oeste 0 1003.5 2.3 60
2019-04-07 08:00:00 9.9 15 Oeste 37 Oeste 0 1002.6 2.2 65
2019-04-07 07:00:00 9.8 17 Oeste 29 Oeste 0 1001.8 1.7 69
2019-04-07 06:00:00 9.2 15 Oeste 29 Oeste 0 1001.2 1.3 73
2019-04-07 05:00:00 8.1 6 Sudoeste 22 Oeste 0 1000.4 0.8 78
2019-04-07 04:00:00 7.7 8 Sudoeste 14 Sur 0 1000.1 1 78
2019-04-07 03:00:00 8.1 0 Calma 16 Sudoeste 0 999.9 1.1 78
2019-04-07 02:00:00 8.9 20 Oeste 40 Oeste 0 999.6 1.2 73
2019-04-07 01:00:00 8.7 3 Sudoeste 27 Oeste 0 999.1 1.2 75
2019-04-07 00:00:00 9.2 10 Oeste 38 Oeste 0 998.8 1.9 74
2019-04-06 23:00:00 8.9 5 Sudoeste 12 Oeste 0 998.4 1.9 84
2019-04-06 22:00:00 8.8 4 Sudoeste 17 Oeste 0 997.9 2.4 84
2019-04-06 21:00:00 8.8 5 Sudoeste 15 Sudoeste 0 996.9 2.3 85
2019-04-06 20:00:00 9.7 9 Oeste 37 Noroeste 0.2 996.5 2.9 86
2019-04-06 19:00:00 11 19 Noroeste 39 Oeste 0 995.5 2.9 79
2019-04-06 18:00:00 11.4 25 Noroeste 40 Noroeste 0 994.6 2 75
2019-04-06 17:00:00 13.4 21 Noroeste 31 Noroeste 0 993.6 1.4 65
2019-04-06 16:00:00 14.1 13 Noroeste 19 Noroeste 0 992.6 0.4 68
2019-04-06 15:00:00 13.2 10 Noroeste 15 Noroeste 0 992.6 0.4 62
2019-04-06 14:00:00 13.6 6 Norte 14 Norte 0 992.2 0 52
2019-04-06 13:00:00 13.5 10 Nordeste 16 Este 0 992.2 -0.1 58
2019-04-06 12:00:00 13.1 8 Nordeste 14 Este 0 992.2 -0.2 65
2019-04-06 11:00:00 11.5 5 Este 11 Sur 0 992.2 -0.3 72
2019-04-06 10:00:00 7.7 3 Sudoeste 13 Sur 0 992.3 -0.4 87
2019-04-06 09:00:00 6.8 7 Sur 15 Sur 0 992.4 -0.6 89
2019-04-06 08:00:00 4.3 14 Sur 18 Sudoeste 0 992.5 -0.8 93
2019-04-06 07:00:00 4.5 13 Sudoeste 17 Sudoeste 0 992.7 -1 93
2019-04-06 06:00:00 4.8 13 Sur 17 Sudoeste 0 993 -1.1 93
2019-04-06 05:00:00 5.2 12 Sudoeste 17 Sudoeste 0 993.3 -1.3 93
2019-04-06 04:00:00 5.8 12 Sudoeste 14 Sur 0 993.7 -1.2 92
2019-04-06 03:00:00 6.2 11 Sur 13 Sur 0 994.1 -1 92
2019-04-06 02:00:00 7.4 9 Sur 12 Sur 0 994.6 -0.3 90
2019-04-06 01:00:00 8.3 7 Sur 13 Sur 0 994.9 0.2 86
2019-04-06 00:00:00 8.4 8 Sur 13 Sur 0 995.1 1.5 87
2019-04-05 23:00:00 8.9 3 Sudoeste 13 Sudoeste 0 994.9 2 81
2019-04-05 22:00:00 10.4 5 Oeste 8 Oeste 0 994.7 2.3 79
2019-04-05 21:00:00 10.8 5 Nordeste 18 Este 0 993.6 1.8 79
2019-04-05 20:00:00 11.3 11 Este 22 Este 0 992.9 1.3 78
2019-04-05 19:00:00 11.4 12 Este 26 Este 0 992.4 0.5 74
2019-04-05 18:00:00 12.1 14 Nordeste 23 Este 0 991.8 -0.5 71
2019-04-05 17:00:00 11.6 13 Nordeste 23 Este 0 991.6 -0.9 75
2019-04-05 16:00:00 12 11 Nordeste 23 Nordeste 0 991.9 -0.9 75
2019-04-05 15:00:00 11.4 12 Nordeste 21 Nordeste 0.2 992.3 -0.4 81
2019-04-05 14:00:00 11.6 8 Nordeste 16 Nordeste 0 992.5 0.5 79
2019-04-05 13:00:00 11.2 9 Nordeste 16 Norte 0 992.8 1.4 86
2019-04-05 12:00:00 10.4 3 Norte 8 Noroeste 0 992.7 1.4 88
2019-04-05 11:00:00 10.3 3 Norte 8 Norte 0 992 1 88
2019-04-05 10:00:00 9.6 2 Norte 17 Noroeste 0.7 991.4 0.5 91
2019-04-05 09:00:00 9.4 9 Noroeste 19 Noroeste 0.6 991.3 0.8 90
2019-04-05 08:00:00 9.7 4 Sudoeste 20 Noroeste 0 991 0.8 87
2019-04-05 07:00:00 9.4 3 Sudoeste 27 Noroeste 0 990.9 0.9 85
2019-04-05 06:00:00 10.3 12 Oeste 24 Norte 0 990.5 0.3 84
2019-04-05 05:00:00 11 15 Noroeste 20 Noroeste 0 990.2 -0.6 79
2019-04-05 04:00:00 10.6 3 Oeste 9 Sur 0 990 -1.1 68
2019-04-05 03:00:00 10.9 4 Sur 10 Sur 0 990.2 -1.7 62
2019-04-05 02:00:00 11.1 4 Sur 12 Sur 0 990.8 -1.4 59
2019-04-05 01:00:00 10.8 5 Sur 12 Sudeste 0 991.1 -1.4 70
2019-04-05 00:00:00 10.7 4 Sur 12 Sur 0 991.9 -0.7 77
2019-04-04 23:00:00 10.7 4 Sudeste 10 Sudeste 0 992.2 -0.6 79
2019-04-04 22:00:00 11.2 2 Noroeste 6 Sur 0 992.5 -0.6 79
2019-04-04 21:00:00 11.1 2 Sudeste 11 Este 0 992.6 -0.7 79
2019-04-04 20:00:00 11.5 2 Este 19 Sudeste 0 992.8 -0.8 78
2019-04-04 19:00:00 11.6 6 Este 27 Este 0 993.1 -1.3 72
2019-04-04 18:00:00 11.7 18 Este 26 Este 0 993.3 -2.1 68
2019-04-04 17:00:00 11.8 17 Este 28 Este 0 993.6 -3.2 66
2019-04-04 16:00:00 12.4 14 Este 25 Este 0 994.4 -3.1 60
2019-04-04 15:00:00 11.9 17 Este 25 Este 0 995.4 -3.5 58
2019-04-04 14:00:00 12.6 9 Nordeste 17 Nordeste 0 996.8 -2.3 55
2019-04-04 13:00:00 13 6 Nordeste 13 Norte 0 997.5 -1.8 50
2019-04-04 12:00:00 12 0 Calma 11 Sur 0 998.9 -0.4 52
2019-04-04 11:00:00 10.7 6 Sur 14 Sur 0 999.1 -0.2 62
2019-04-04 10:00:00 8.1 5 Sudoeste 15 Sudoeste 0 999.3 0 70
2019-04-04 09:00:00 5.7 7 Sudoeste 14 Oeste 0 999.3 -0.3 77
2019-04-04 08:00:00 6.2 5 Sudoeste 25 Noroeste 0 999.3 -0.8 71
2019-04-04 07:00:00 6.8 13 Oeste 39 Oeste 0 999.3 -1 72
2019-04-04 06:00:00 6.6 18 Oeste 42 Oeste 0.1 999.6 -2.2 78
2019-04-04 05:00:00 6.1 21 Oeste 58 Oeste 0.9 1000.1 -2.1 83
2019-04-04 04:00:00 4.5 4 Sudoeste 14 Sudoeste 0.1 1000.3 -2.8 91
2019-04-04 03:00:00 4.3 5 Sudoeste 38 Oeste 1.9 1001.8 -1.5 91
2019-04-04 02:00:00 3.7 4 Sudoeste 23 Sudoeste 0 1002.2 -1.5 90
2019-04-04 01:00:00 3.4 5 Sudoeste 41 Oeste 1 1003.1 -0.4 90
2019-04-04 00:00:00 4.9 3 Sudoeste 19 Sur 0 1003.3 0.5 85
2019-04-03 23:00:00 5.3 8 Oeste 24 Oeste 0 1003.7 0.3 83
2019-04-03 22:00:00 5.7 9 Oeste 35 Oeste 0.3 1003.5 0.3 78
2019-04-03 21:00:00 6.9 17 Oeste 34 Oeste 0 1002.8 -1.2 71
2019-04-03 20:00:00 7.3 12 Oeste 37 Oeste 0.6 1003.4 -1 74
2019-04-03 19:00:00 5.4 21 Noroeste 40 Noroeste 4.6 1003.2 -1.6 81
2019-04-03 18:00:00 7.7 5 Oeste 31 Oeste 0.5 1004 -0.9 87
2019-04-03 17:00:00 5.5 4 Sudoeste 40 Noroeste 1.1 1004.4 -0.9 89
2019-04-03 16:00:00 5.3 43 Noroeste 69 Noroeste 1 1004.8 -1 89
2019-04-03 15:00:00 5.9 30 Noroeste 64 Noroeste 0.8 1004.9 -0.6 83
2019-04-03 14:00:00 6.5 11 Oeste 34 Oeste 0.1 1005.3 -0.6 89
2019-04-03 13:00:00 5.1 4 Sudoeste 63 Noroeste 3.5 1005.8 -0.2 92
2019-04-03 12:00:00 6.7 36 Noroeste 64 Noroeste 0.3 1005.5 -0.9 81
2019-04-03 11:00:00 7.3 14 Oeste 34 Oeste 0.5 1005.9 -0.6 89
2019-04-03 10:00:00 6.9 11 Oeste 52 Oeste 0.3 1006 -0.6 89
2019-04-03 09:00:00 5.9 8 Oeste 45 Oeste 2.3 1006.4 -0.6 91
2019-04-03 08:00:00 6.8 24 Oeste 49 Oeste 1.1 1006.5 -1.1 90
2019-04-03 07:00:00 6.5 13 Oeste 52 Oeste 1.4 1006.6 -1.4 89
2019-04-03 06:00:00 7.8 19 Oeste 40 Oeste 0.2 1007 -2 85
2019-04-03 05:00:00 7.7 30 Oeste 51 Oeste 0.2 1007.6 -2 88
2019-04-03 04:00:00 8.2 24 Oeste 53 Noroeste 0 1008 -2.3 81
2019-04-03 03:00:00 8.8 18 Oeste 35 Oeste 0 1009 -2 81
2019-04-03 02:00:00 8.8 15 Oeste 32 Oeste 0 1009.6 -1.8 81
2019-04-03 01:00:00 8.5 18 Oeste 34 Oeste 0 1010.3 -1.2 90
2019-04-03 00:00:00 8.9 24 Noroeste 39 Noroeste 0.2 1011 0 92
2019-04-02 23:00:00 8.3 14 Oeste 37 Noroeste 1.2 1011.4 0.1 93
2019-04-02 22:00:00 9 16 Oeste 35 Oeste 0.2 1011.5 0.5 93
2019-04-02 21:00:00 9.2 11 Oeste 33 Oeste 0.3 1011 -0.5 93
2019-04-02 20:00:00 9.8 19 Oeste 31 Oeste 0.7 1011.3 -0.3 91
2019-04-02 19:00:00 10.9 21 Noroeste 33 Noroeste 0 1011 -0.9 87
2019-04-02 18:00:00 11 28 Noroeste 42 Noroeste 0.1 1011.5 -1 88
2019-04-02 17:00:00 12.1 25 Noroeste 34 Noroeste 0 1011.6 -1.1 81
2019-04-02 16:00:00 12.4 18 Noroeste 29 Noroeste 0 1011.9 -1.2 78
2019-04-02 15:00:00 12.6 13 Noroeste 23 Noroeste 0 1012.5 -0.8 81
2019-04-02 14:00:00 13 15 Noroeste 23 Noroeste 0 1012.7 -0.7 81
2019-04-02 13:00:00 12.6 14 Noroeste 26 Oeste 0 1013.1 0 83
2019-04-02 12:00:00 12.5 17 Noroeste 30 Oeste 0 1013.3 0.6 84
2019-04-02 11:00:00 11.8 11 Oeste 26 Oeste 0 1013.4 1.1 87
2019-04-02 10:00:00 9.9 4 Sudoeste 23 Oeste 0 1013.1 1.4 86
2019-04-02 09:00:00 10.5 10 Oeste 25 Oeste 0 1012.7 1 89
2019-04-02 08:00:00 8.8 7 Oeste 17 Oeste 0 1012.3 0.4 90
2019-04-02 07:00:00 8.6 5 Sudoeste 14 Sudoeste 0 1011.7 0.3 92
2019-04-02 06:00:00 10.1 3 Oeste 20 Oeste 0 1011.7 0.2 92
2019-04-02 05:00:00 9.1 5 Oeste 25 Oeste 0 1011.9 0.2 91
2019-04-02 04:00:00 7.2 6 Sudoeste 14 Sur 0 1011.4 -0.4 92
2019-04-02 03:00:00 7 11 Sudoeste 15 Sudoeste 0 1011.5 -0.4 93
2019-04-02 02:00:00 7.3 11 Sur 14 Sudoeste 0 1011.7 -0.1 93
2019-04-02 01:00:00 7.9 11 Sudoeste 14 Sudoeste 0 1011.8 0.4 93
2019-04-02 00:00:00 9 10 Sudoeste 13 Sudoeste 0 1011.9 1 92
2019-04-01 23:00:00 9.8 9 Sudoeste 12 Sudoeste 0 1011.8 1.4 90
2019-04-01 22:00:00 10.8 8 Sudoeste 9 Sudoeste 0 1011.4 1.1 90
2019-04-01 21:00:00 12.2 0 Calma 3 Oeste 0 1010.9 1 89
2019-04-01 20:00:00 13.2 0 Calma 5 Noroeste 0 1010.4 0.7 88
2019-04-01 19:00:00 13.9 4 Noroeste 13 Noroeste 0 1010.3 0.3 88
2019-04-01 18:00:00 13.8 10 Noroeste 12 Noroeste 0 1009.9 -0.4 90
2019-04-01 17:00:00 13.4 5 Norte 17 Norte 0 1009.7 -0.7 90
2019-04-01 16:00:00 12.6 7 Norte 18 Norte 0 1010 -0.6 88
2019-04-01 15:00:00 12.9 6 Norte 17 Norte 0 1010.3 -0.5 87
2019-04-01 14:00:00 12.6 8 Noroeste 16 Noroeste 0 1010.4 -0.3 87
2019-04-01 13:00:00 12.9 8 Noroeste 12 Noroeste 0 1010.6 0.5 86
2019-04-01 12:00:00 12.4 3 Noroeste 9 Noroeste 0 1010.8 1.3 83
2019-04-01 11:00:00 10.8 4 Sur 14 Sudoeste 0 1010.7 1.6 77
2019-04-01 10:00:00 8 11 Sur 15 Sur 0 1010.1 1.3 82
2019-04-01 09:00:00 5.9 9 Sur 19 Sudoeste 0 1009.5 0.8 85
2019-04-01 08:00:00 5.6 11 Sudoeste 15 Sudoeste 0 1009.1 0.2 87
2019-04-01 07:00:00 5.6 13 Sudoeste 15 Sudoeste 0 1008.8 -0.3 87
2019-04-01 06:00:00 5.8 13 Sudoeste 15 Sudoeste 0 1008.7 -0.7 90
2019-04-01 05:00:00 6.1 13 Sudoeste 15 Sudoeste 0 1008.9 -0.7 91
2019-04-01 04:00:00 6.4 13 Sudoeste 16 Sudoeste 0 1009.1 -0.7 91
2019-04-01 03:00:00 6.9 13 Sudoeste 17 Sudoeste 0 1009.4 -0.4 92
2019-04-01 02:00:00 7.9 12 Sudoeste 15 Sudoeste 0 1009.6 -0.2 92
2019-04-01 01:00:00 8.7 6 Sur 12 Sudeste 0 1009.8 0.3 91
2019-04-01 00:00:00 9.4 6 Sur 11 Sudoeste 0 1009.8 0.9 90
2019-03-31 23:00:00 10.4 9 Sudoeste 12 Sudoeste 0 1009.8 1.3 90
2019-03-31 22:00:00 11.8 3 Sudeste 16 Este 0 1009.5 1.4 88
2019-03-31 21:00:00 12.4 8 Este 22 Este 0 1008.9 1.1 90
2019-03-31 20:00:00 13.3 10 Este 37 Este 0 1008.5 0.5 84
2019-03-31 19:00:00 13.8 24 Este 39 Este 0 1008.1 -0.3 78
2019-03-31 18:00:00 14.6 20 Este 33 Este 0 1007.8 -1.4 71
2019-03-31 17:00:00 14.8 20 Este 28 Este 0 1008 -1.6 70
2019-03-31 16:00:00 15.5 5 Noroeste 13 Noroeste 0 1008.4 -1.8 74
2019-03-31 15:00:00 14.1 7 Noroeste 16 Noroeste 0 1009.2 -1.3 79
2019-03-31 14:00:00 13.9 10 Noroeste 14 Noroeste 0 1009.6 -0.9 77
2019-03-31 13:00:00 12.9 5 Norte 8 Nordeste 0 1010.2 -0.1 80
2019-03-31 12:00:00 12.3 4 Nordeste 8 Nordeste 0 1010.5 0.2 84
2019-03-31 11:00:00 13.4 3 Este 8 Sur 0 1010.5 0.4 73
2019-03-31 10:00:00 9.7 6 Sudoeste 12 Sudoeste 0 1010.3 0.2 90
2019-03-31 09:00:00 7.6 10 Sudoeste 14 Sudoeste 0 1010.3 0 93
2019-03-31 08:00:00 6.8 7 Sudoeste 12 Sudoeste 0 1010.1 -0.9 93
2019-03-31 07:00:00 7 11 Sudoeste 13 Sudoeste 0 1010.1 -1.5 93
2019-03-31 06:00:00 7.5 10 Sudoeste 12 Sudoeste 0 1010.3 -1.8 93
2019-03-31 05:00:00 8.4 9 Sudoeste 13 Sudoeste 0 1011 -1.6 93
2019-03-31 03:00:00 8.8 7 Sur 13 Sur 0 1012.1 -1 93
2019-03-31 01:00:00 9.2 7 Sur 10 Sudoeste 0 1012.6 -0.7 93
2019-03-31 00:00:00 9.6 5 Sur 10 Sudoeste 0 1013 -0.3 93
2019-03-30 23:00:00 10.5 4 Sur 8 Sudeste 0 1013.1 0.3 93
2019-03-30 22:00:00 11.2 6 Sudeste 9 Sudeste 0 1013.3 0.7 93
2019-03-30 21:00:00 11.4 0 Calma 6 Este 0 1013.3 0.8 92
2019-03-30 20:00:00 11.6 2 Este 5 Este 0 1012.8 0.2 91
2019-03-30 19:00:00 12.7 0 Calma 6 Norte 0 1012.6 -0.2 89
2019-03-30 18:00:00 13.6 4 Nordeste 12 Nordeste 0 1012.5 -0.6 87
2019-03-30 17:00:00 13.4 5 Nordeste 10 Norte 0 1012.6 -1 87
2019-03-30 16:00:00 13.6 8 Norte 10 Noroeste 0 1012.8 -1 85
2019-03-30 15:00:00 13.2 5 Norte 12 Noroeste 0 1013.1 -0.8 86
2019-03-30 14:00:00 14 5 Noroeste 12 Oeste 0 1013.6 -0.5 87
2019-03-30 13:00:00 12.8 6 Norte 13 Norte 0 1013.8 -0.3 89
2019-03-30 12:00:00 12.4 5 Norte 7 Norte 0 1013.9 -0.4 90
2019-03-30 11:00:00 11.8 4 Norte 7 Norte 0 1014.1 -0.1 90
2019-03-30 10:00:00 12.7 3 Este 9 Sudoeste 0 1014.1 0 87
2019-03-30 09:00:00 8.5 9 Sudoeste 15 Sudoeste 0 1014.3 0.3 91
2019-03-30 08:00:00 5.6 13 Sudoeste 15 Sudoeste 0 1014.2 0.4 93
2019-03-30 07:00:00 5.2 13 Sudoeste 15 Sudoeste 0 1014.1 0.5 93
2019-03-30 06:00:00 5.8 12 Sudoeste 15 Sur 0 1014 -0.2 93
2019-03-30 05:00:00 6.6 5 Sudoeste 16 Sur 0 1013.8 -0.7 93
2019-03-30 04:00:00 6.9 7 Sudoeste 15 Sudoeste 0 1013.6 -1.1 93
2019-03-30 03:00:00 6.4 13 Sudoeste 16 Sur 0 1014.2 -0.9 93
2019-03-30 02:00:00 7.1 11 Sudoeste 14 Sudoeste 0 1014.5 -1.1 93
2019-03-30 01:00:00 7.2 11 Sudoeste 13 Sudoeste 0 1014.7 -1.1 93
2019-03-30 00:00:00 8 10 Sudoeste 12 Sudoeste 0 1015.1 -0.9 93
2019-03-29 23:00:00 8.5 8 Sur 10 Sur 0 1015.6 -0.3 92
2019-03-29 22:00:00 9.3 8 Sudoeste 10 Sur 0 1015.8 0 90
2019-03-29 21:00:00 10.4 5 Sur 7 Sudoeste 0 1016 0.3 90
2019-03-29 20:00:00 11.5 0 Calma 7 Nordeste 0 1015.9 -0.1 84
2019-03-29 19:00:00 12.5 4 Nordeste 9 Norte 0 1015.8 -0.5 79
2019-03-29 18:00:00 12.7 4 Nordeste 9 Nordeste 0 1015.7 -1.1 77
2019-03-29 17:00:00 13.1 7 Nordeste 10 Norte 0 1016 -1.4 75
2019-03-29 16:00:00 13.1 7 Norte 12 Norte 0 1016.3 -1.6 71
2019-03-29 15:00:00 13.5 7 Norte 10 Norte 0 1016.8 -1.9 74
2019-03-29 14:00:00 12.4 8 Norte 12 Nordeste 0 1017.4 -1.6 80
2019-03-29 13:00:00 12.6 6 Norte 9 Norte 0 1017.9 -1.3 77
2019-03-29 12:00:00 11.6 8 Norte 11 Norte 0 1018.7 -0.8 72
2019-03-29 11:00:00 11.1 5 Norte 8 Norte 0 1019 -0.6 76
2019-03-29 10:00:00 10.1 3 Norte 10 Sudoeste 0 1019.2 -0.8 80
2019-03-29 09:00:00 7 9 Sur 14 Sudoeste 0 1019.5 -0.4 91
2019-03-29 08:00:00 4.7 11 Sudoeste 15 Sudoeste 0 1019.6 -0.5 93
2019-03-29 07:00:00 3.7 13 Sudoeste 16 Sudoeste 0 1020 -0.6 93
2019-03-29 06:00:00 3.7 13 Sudoeste 15 Sudoeste 0 1019.9 -1.5 94
2019-03-29 05:00:00 4.2 13 Sudoeste 17 Sudoeste 0 1020.1 -2 93
2019-03-29 04:00:00 4.4 14 Sudoeste 17 Sudoeste 0 1020.6 -2.1 93
2019-03-29 03:00:00 4.8 13 Sudoeste 15 Sudoeste 0 1021.4 -1.7 93
2019-03-29 02:00:00 5.2 13 Sur 16 Sur 0 1022.1 -1.5 93
2019-03-29 01:00:00 6.1 10 Sur 13 Sur 0 1022.7 -1 93
2019-03-29 00:00:00 7.1 9 Sur 13 Sur 0 1023.1 -0.8 93
2019-03-28 23:00:00 7.6 8 Sur 14 Sur 0 1023.6 0.1 92
2019-03-28 22:00:00 9.1 6 Sudeste 15 Este 0 1023.7 0 89
2019-03-28 21:00:00 10.1 10 Este 22 Este 0 1023.9 0.3 89
2019-03-28 20:00:00 10.7 9 Este 30 Este 0 1023.5 -0.4 87
2019-03-28 19:00:00 11.3 17 Este 33 Este 0 1023.7 -0.7 84
2019-03-28 18:00:00 11.5 21 Este 30 Este 0 1023.6 -1.2 82
2019-03-28 17:00:00 12 19 Nordeste 28 Este 0 1023.9 -1.4 79
2019-03-28 16:00:00 12.8 16 Nordeste 28 Este 0 1024.4 -1.4 77
2019-03-28 15:00:00 13.2 14 Nordeste 25 Nordeste 0 1024.8 -1.5 72
2019-03-28 14:00:00 13.4 14 Nordeste 28 Este 0 1025.3 -1.5 72
2019-03-28 13:00:00 13.7 14 Nordeste 26 Nordeste 0 1025.8 -1 71
2019-03-28 12:00:00 13.2 11 Nordeste 22 Este 0 1026.3 -0.4 74
2019-03-28 11:00:00 12 10 Nordeste 17 Este 0 1026.8 0.5 75
2019-03-28 10:00:00 11.5 4 Este 15 Sudoeste 0 1026.8 0.8 67
2019-03-28 09:00:00 7.2 11 Sudoeste 19 Sudoeste 0 1026.7 0.8 77
2019-03-28 08:00:00 4.5 15 Sudoeste 20 Sudoeste 0 1026.3 0.5 86
2019-03-28 07:00:00 3.7 16 Sudoeste 19 Sudoeste 0 1026 0.2 90
2019-03-28 06:00:00 4 15 Sudoeste 19 Sudoeste 0 1025.9 -0.4 90
2019-03-28 05:00:00 4.2 15 Sudoeste 19 Sudoeste 0 1025.8 -0.9 91
2019-03-28 04:00:00 4.7 14 Sudoeste 18 Sudoeste 0 1025.8 -1.2 92
2019-03-28 03:00:00 4.7 14 Sudoeste 17 Sudoeste 0 1026.3 -0.7 91
2019-03-28 02:00:00 5.7 12 Sur 17 Sur 0 1026.7 -0.3 90
2019-03-28 01:00:00 6 14 Sur 17 Sur 0 1027 0.2 91
2019-03-28 00:00:00 6.4 10 Sudoeste 14 Sur 0 1027 0.4 91
2019-03-27 23:00:00 7 11 Sur 16 Sur 0 1027 1 90
2019-03-27 22:00:00 8 10 Sur 14 Sur 0 1026.8 1.2 86
2019-03-27 21:00:00 9 10 Sudeste 20 Este 0 1026.6 1.3 79
2019-03-27 20:00:00 10.1 10 Este 25 Este 0 1026 0.8 77
2019-03-27 19:00:00 10.6 17 Este 28 Este 0 1025.6 0.4 75
2019-03-27 18:00:00 11.1 18 Este 28 Nordeste 0 1025.3 0.1 73
2019-03-27 17:00:00 11.4 19 Nordeste 28 Nordeste 0 1025.2 -0.2 74
2019-03-27 16:00:00 11.9 18 Nordeste 29 Este 0 1025.2 -0.3 71
2019-03-27 15:00:00 11.9 21 Nordeste 31 Este 0 1025.2 -0.2 69
2019-03-27 14:00:00 12 19 Nordeste 32 Este 0 1025.4 0.4 71
2019-03-27 13:00:00 12.1 23 Nordeste 35 Este 0 1025.5 0.7 70
2019-03-27 12:00:00 12.4 19 Nordeste 30 Este 0 1025.4 1 66
2019-03-27 11:00:00 11.7 19 Este 28 Este 0 1025 1.1 67
2019-03-27 10:00:00 11.1 5 Sur 13 Sur 0 1024.8 1.3 66
2019-03-27 09:00:00 7.4 10 Sur 15 Sudoeste 0 1024.4 1.2 81
2019-03-27 08:00:00 4.2 13 Sur 16 Sudoeste 0 1023.9 0.8 87
2019-03-27 07:00:00 3.5 13 Sur 17 Sudoeste 0 1023.5 0.5 87
2019-03-27 06:00:00 3.7 15 Sudoeste 17 Sudoeste 0 1023.2 0 87
2019-03-27 05:00:00 4.2 13 Sudoeste 15 Sudoeste 0 1023.1 -0.4 88
2019-03-27 04:00:00 4.7 11 Sur 17 Sur 0 1023 -0.8 87
2019-03-27 03:00:00 5.8 11 Sur 18 Sur 0 1023.2 -0.9 81
2019-03-27 02:00:00 5.9 10 Sur 15 Sur 0 1023.5 -0.6 82
2019-03-27 01:00:00 6.2 11 Sur 22 Sur 0 1023.8 -0.1 81
2019-03-27 00:00:00 8 13 Sudeste 24 Sudeste 0 1024.1 0.4 68
2019-03-26 23:00:00 8 15 Sudeste 26 Sudeste 0 1024.1 1 72
2019-03-26 22:00:00 7.9 10 Sudeste 17 Sudeste 0 1023.9 0.7 74
2019-03-26 21:00:00 8.3 9 Sudeste 23 Sudeste 0 1023.7 0.8 72
2019-03-26 20:00:00 9.3 17 Este 36 Este 0 1023.1 0.3 72
2019-03-26 19:00:00 10.1 14 Este 41 Nordeste 0 1023.2 0.3 71
2019-03-26 18:00:00 10.1 26 Este 43 Nordeste 0 1022.9 -0.3 71
2019-03-26 17:00:00 10.3 28 Este 46 Nordeste 0 1022.8 -0.9 69
2019-03-26 16:00:00 10.4 31 Este 47 Este 0 1022.9 -0.6 67
2019-03-26 15:00:00 10.5 31 Este 48 Este 0 1023.2 -0.8 67
2019-03-26 14:00:00 10.7 35 Nordeste 48 Nordeste 0 1023.7 -0.7 66
2019-03-26 13:00:00 10.9 31 Nordeste 45 Este 0 1023.5 -0.7 65
2019-03-26 12:00:00 11.1 28 Nordeste 43 Este 0 1024 -0.1 61
2019-03-26 11:00:00 11.2 21 Este 33 Este 0 1024.4 0.5 57
2019-03-26 10:00:00 11.4 17 Este 33 Este 0 1024.2 0.7 56
2019-03-26 09:00:00 10.6 10 Este 17 Este 0 1024.1 1 65
2019-03-26 08:00:00 9.3 8 Sudeste 22 Este 0 1023.9 0.8 73
2019-03-26 07:00:00 8.8 8 Sudeste 15 Sudeste 0 1023.5 0.4 77
2019-03-26 06:00:00 9.2 9 Sudeste 19 Este 0 1023.1 -0.2 78
2019-03-26 05:00:00 9.4 8 Sudeste 17 Este 0 1023.1 -0.6 81
2019-03-26 04:00:00 8.6 7 Sur 10 Sur 0 1023.1 -0.9 87
2019-03-26 03:00:00 9 4 Sur 10 Sur 0 1023.3 -1.1 82
2019-03-26 02:00:00 9 6 Sur 13 Este 0 1023.7 -0.8 81
2019-03-26 01:00:00 9.2 8 Sudeste 16 Sur 0 1024 -0.3 80
2019-03-26 00:00:00 9.1 9 Sur 14 Sudeste 0 1024.4 0.4 81
2019-03-25 23:00:00 9.4 9 Sudeste 15 Sudeste 0 1024.5 0.9 78
2019-03-25 22:00:00 9.7 7 Sudeste 12 Sudeste 0 1024.3 1 77
2019-03-25 21:00:00 10.1 6 Este 25 Este 0 1024 0.7 76
2019-03-25 20:00:00 10.6 18 Este 26 Este 0 1023.6 0.1 75
2019-03-25 19:00:00 10.9 17 Nordeste 24 Nordeste 0 1023.3 -0.5 77
2019-03-25 18:00:00 11.8 14 Nordeste 24 Este 0 1023.3 -0.8 73
2019-03-25 17:00:00 11.9 17 Este 27 Nordeste 0 1023.5 -0.9 72
2019-03-25 16:00:00 12.4 19 Nordeste 30 Este 0 1023.8 -1.1 71
2019-03-25 15:00:00 12.7 18 Nordeste 28 Nordeste 0 1024.1 -1 68
2019-03-25 14:00:00 13.4 16 Nordeste 25 Este 0 1024.4 -0.3 66
2019-03-25 13:00:00 12.9 16 Nordeste 27 Nordeste 0 1024.9 0.1 67
2019-03-25 12:00:00 12.7 19 Nordeste 28 Nordeste 0 1025.1 0.8 71
2019-03-25 11:00:00 13.2 9 Este 27 Este 0 1024.7 0.7 65
2019-03-25 10:00:00 11.9 12 Este 24 Este 0 1024.8 1.3 76
2019-03-25 09:00:00 11.3 9 Este 17 Este 0 1024.3 1 87
2019-03-25 08:00:00 10.9 5 Sur 10 Sudeste 0 1024 0.7 89
2019-03-25 07:00:00 11.1 6 Este 13 Este 0 1023.5 0.1 89
2019-03-25 06:00:00 11.2 2 Sudeste 10 Este 0 1023.3 -0.1 87
2019-03-25 05:00:00 11.4 6 Este 20 Nordeste 0 1023.3 -0.1 85
2019-03-25 04:00:00 11.4 10 Nordeste 21 Nordeste 0 1023.4 -0.2 87
2019-03-25 03:00:00 11.4 14 Nordeste 22 Este 0 1023.4 -0.3 89
2019-03-25 02:00:00 11.1 5 Nordeste 12 Nordeste 0 1023.4 -0.5 92
2019-03-25 01:00:00 10.6 2 Sur 8 Sur 0 1023.6 -0.3 92
2019-03-25 00:00:00 10.9 0 Calma 12 Nordeste 0 1023.7 0.4 92